createdAt,value
2017-08-07T00:01:26.794Z,95159.17
2017-08-07T00:03:54.367Z,95160.56
2017-08-07T00:06:21.992Z,95164.03
2017-08-07T00:08:49.635Z,95168.25
2017-08-07T00:11:17.187Z,95170.30
2017-08-07T00:13:44.767Z,95165.75
2017-08-07T00:16:12.345Z,95164.42
2017-08-07T00:18:39.913Z,95157.72
2017-08-07T00:21:07.447Z,95154.36
2017-08-07T00:23:35.962Z,95160.67
2017-08-07T00:26:03.622Z,95154.67
2017-08-07T00:28:31.202Z,95151.53
2017-08-07T00:30:58.842Z,95152.66
2017-08-07T00:33:26.638Z,95160.02
2017-08-07T00:35:54.178Z,95152.97
2017-08-07T00:38:21.807Z,95156.39
2017-08-07T00:40:49.355Z,95155.67
2017-08-07T00:43:18.220Z,95154.63
2017-08-07T00:45:47.139Z,95155.33
2017-08-07T00:48:14.738Z,95149.47
2017-08-07T00:50:42.611Z,95150.62
2017-08-07T00:53:10.216Z,95154.44
2017-08-07T00:55:37.805Z,95153.97
2017-08-07T00:58:05.637Z,95148.83
2017-08-07T01:00:33.580Z,95150.12
2017-08-07T01:03:01.410Z,95155.16
2017-08-07T01:05:29.031Z,95148.02
2017-08-07T01:07:56.691Z,95159.76
2017-08-07T01:10:24.303Z,95161.51
2017-08-07T01:12:52.076Z,95162.33
2017-08-07T01:15:19.687Z,95160.00
2017-08-07T01:17:47.258Z,95162.84
2017-08-07T01:20:15.762Z,95161.02
2017-08-07T01:22:43.373Z,95161.97
2017-08-07T01:25:11.051Z,95161.61
2017-08-07T01:27:38.634Z,95158.66
2017-08-07T01:30:07.025Z,95156.05
2017-08-07T01:32:34.683Z,95148.10
2017-08-07T01:35:02.285Z,95154.16
2017-08-07T01:37:29.893Z,95160.33
2017-08-07T01:39:57.483Z,95148.52
2017-08-07T01:42:25.061Z,95158.57
2017-08-07T01:44:52.676Z,95160.09
2017-08-07T01:47:20.300Z,95156.16
2017-08-07T01:49:47.929Z,95155.95
2017-08-07T01:52:15.558Z,95158.02
2017-08-07T01:54:43.199Z,95166.31
2017-08-07T01:57:10.867Z,95164.41
2017-08-07T01:59:38.462Z,95167.03
2017-08-07T02:02:06.106Z,95163.86
2017-08-07T02:04:33.681Z,95173.98
2017-08-07T02:07:01.241Z,95169.23
2017-08-07T02:09:28.871Z,95178.44
2017-08-07T02:11:56.421Z,95178.53
2017-08-07T02:14:23.982Z,95187.50
2017-08-07T02:16:51.581Z,95182.71
2017-08-07T02:19:19.135Z,95190.38
2017-08-07T02:21:46.746Z,95195.24
2017-08-07T02:24:14.388Z,95185.17
2017-08-07T02:26:41.963Z,95191.93
2017-08-07T02:29:09.583Z,95197.04
2017-08-07T02:31:37.204Z,95193.13
2017-08-07T02:34:04.794Z,95197.04
2017-08-07T02:36:32.389Z,95194.73
2017-08-07T02:39:00.028Z,95201.03
2017-08-07T02:41:27.643Z,95192.01
2017-08-07T02:43:55.323Z,95195.32
2017-08-07T02:46:22.917Z,95187.55
2017-08-07T02:48:50.527Z,95187.66
2017-08-07T02:51:18.292Z,95189.95
2017-08-07T02:53:46.111Z,95196.12
2017-08-07T02:56:13.751Z,95200.84
2017-08-07T02:58:41.584Z,95198.80
2017-08-07T03:01:09.191Z,95201.56
2017-08-07T03:03:36.758Z,95202.23
2017-08-07T03:06:04.432Z,95199.13
2017-08-07T03:08:32.034Z,95195.97
2017-08-07T03:10:59.589Z,95197.48
2017-08-07T03:13:27.167Z,95192.14
2017-08-07T03:15:54.781Z,95198.21
2017-08-07T03:18:22.530Z,95203.70
2017-08-07T03:20:50.281Z,95204.26
2017-08-07T03:23:18.067Z,95206.84
2017-08-07T03:25:45.696Z,95205.83
2017-08-07T03:28:13.294Z,95212.69
2017-08-07T03:30:40.858Z,95209.79
2017-08-07T03:33:08.464Z,95211.88
2017-08-07T03:35:36.237Z,95209.73
2017-08-07T03:38:03.859Z,95211.40
2017-08-07T03:40:31.434Z,95223.80
2017-08-07T03:42:59.028Z,95217.22
2017-08-07T03:45:26.627Z,95228.36
2017-08-07T03:47:54.256Z,95223.44
2017-08-07T03:50:22.016Z,95219.60
2017-08-07T03:52:49.617Z,95223.80
2017-08-07T03:55:17.269Z,95226.61
2017-08-07T03:57:44.866Z,95227.46
2017-08-07T04:00:12.543Z,95233.34
2017-08-07T04:02:40.306Z,95227.84
2017-08-07T04:05:08.096Z,95227.64
2017-08-07T04:07:35.730Z,95225.59
2017-08-07T04:10:03.306Z,95228.09
2017-08-07T04:12:30.877Z,95226.63
2017-08-07T04:14:58.458Z,95222.83
2017-08-07T04:17:27.842Z,95229.06
2017-08-07T04:19:55.403Z,95224.91
2017-08-07T04:22:23.055Z,95221.55
2017-08-07T04:24:50.637Z,95224.18
2017-08-07T04:27:18.210Z,95224.80
2017-08-07T04:29:45.823Z,95230.37
2017-08-07T04:32:13.700Z,95239.74
2017-08-07T04:34:41.787Z,95237.80
2017-08-07T04:37:09.365Z,95249.10
2017-08-07T04:39:36.935Z,95241.31
2017-08-07T04:42:04.507Z,95242.30
2017-08-07T04:44:32.105Z,95247.55
2017-08-07T04:46:59.768Z,95243.02
2017-08-07T04:49:27.327Z,95247.95
2017-08-07T04:51:54.891Z,95249.48
2017-08-07T04:54:22.453Z,95249.67
2017-08-07T04:56:52.885Z,95251.59
2017-08-07T04:59:20.647Z,95256.98
2017-08-07T05:01:48.246Z,95259.08
2017-08-07T05:04:15.815Z,95263.05
2017-08-07T05:06:43.422Z,95266.48
2017-08-07T05:09:11.026Z,95269.91
2017-08-07T05:11:38.587Z,95271.69
2017-08-07T05:14:06.215Z,95267.33
2017-08-07T05:16:33.793Z,95267.87
2017-08-07T05:19:01.415Z,95268.27
2017-08-07T05:21:29.003Z,95268.61
2017-08-07T05:23:56.637Z,95279.75
2017-08-07T05:26:24.391Z,95273.88
2017-08-07T05:28:52.175Z,95282.65
2017-08-07T05:31:19.827Z,95283.68
2017-08-07T05:33:47.428Z,95282.25
2017-08-07T05:36:15.223Z,95293.41
2017-08-07T05:38:42.821Z,95282.90
2017-08-07T05:41:10.411Z,95278.59
2017-08-07T05:43:38.166Z,95276.53
2017-08-07T05:46:05.832Z,95273.64
2017-08-07T05:48:33.399Z,95270.03
2017-08-07T05:51:01.037Z,95273.64
2017-08-07T05:53:28.637Z,95274.86
2017-08-07T05:55:56.201Z,95282.48
2017-08-07T05:58:23.965Z,95273.39
2017-08-07T06:00:51.565Z,95281.39
2017-08-07T06:03:19.352Z,95274.87
2017-08-07T06:05:46.931Z,95276.28
2017-08-07T06:08:14.490Z,95280.23
2017-08-07T06:10:42.093Z,95291.23
2017-08-07T06:13:09.842Z,95285.81
2017-08-07T06:15:37.454Z,95291.19
2017-08-07T06:18:05.274Z,95287.20
2017-08-07T06:20:32.893Z,95284.71
2017-08-07T06:23:00.549Z,95294.80
2017-08-07T06:25:29.228Z,95294.53
2017-08-07T06:27:56.775Z,95292.78
2017-08-07T06:30:24.482Z,95291.84
2017-08-07T06:32:52.100Z,95291.59
2017-08-07T06:35:19.748Z,95295.34
2017-08-07T06:37:47.339Z,95298.25
2017-08-07T06:40:20.498Z,95292.98
2017-08-07T06:42:48.135Z,95296.08
2017-08-07T06:45:15.718Z,95295.85
2017-08-07T06:47:43.299Z,95294.06
2017-08-07T06:50:10.876Z,95300.73
2017-08-07T06:52:38.792Z,95297.47
2017-08-07T06:55:06.338Z,95299.79
2017-08-07T06:57:33.966Z,95296.97
2017-08-07T07:00:01.559Z,95301.28
2017-08-07T07:02:29.130Z,95297.03
2017-08-07T07:04:56.703Z,95303.88
2017-08-07T07:07:24.359Z,95302.05
2017-08-07T07:09:51.999Z,95299.16
2017-08-07T07:12:20.005Z,95296.02
2017-08-07T07:14:47.555Z,95295.38
2017-08-07T07:17:15.164Z,95296.39
2017-08-07T07:19:43.347Z,95303.06
2017-08-07T07:22:10.895Z,95299.90
2017-08-07T07:24:38.497Z,95303.08
2017-08-07T07:27:06.085Z,95289.36
2017-08-07T07:29:34.646Z,95292.23
2017-08-07T07:32:02.340Z,95290.44
2017-08-07T07:34:30.134Z,95293.95
2017-08-07T07:36:58.017Z,95287.78
2017-08-07T07:39:25.610Z,95286.67
2017-08-07T07:41:53.195Z,95294.38
2017-08-07T07:44:20.862Z,95289.84
2017-08-07T07:46:49.111Z,95285.97
2017-08-07T07:49:16.864Z,95288.02
2017-08-07T07:51:44.503Z,95290.05
2017-08-07T07:54:12.365Z,95283.03
2017-08-07T07:56:39.942Z,95284.05
2017-08-07T07:59:07.558Z,95285.80
2017-08-07T08:01:35.185Z,95282.37
2017-08-07T08:04:02.720Z,95278.38
2017-08-07T08:06:30.366Z,95281.63
2017-08-07T08:08:58.024Z,95282.91
2017-08-07T08:11:25.662Z,95284.27
2017-08-07T08:13:53.565Z,95283.23
2017-08-07T08:16:22.152Z,95276.12
2017-08-07T08:18:49.734Z,95286.47
2017-08-07T08:21:17.310Z,95282.89
2017-08-07T08:23:44.989Z,95285.02
2017-08-07T08:26:12.703Z,95285.42
2017-08-07T08:28:40.249Z,95288.66
2017-08-07T08:31:07.865Z,95284.66
2017-08-07T08:33:35.472Z,95286.23
2017-08-07T08:36:03.050Z,95284.36
2017-08-07T08:38:30.725Z,95285.30
2017-08-07T08:40:58.282Z,95284.70
2017-08-07T08:43:26.308Z,95285.30
2017-08-07T08:45:54.782Z,95278.44
2017-08-07T08:48:22.357Z,95284.80
2017-08-07T08:50:50.632Z,95286.75
2017-08-07T08:53:18.276Z,95291.02
2017-08-07T08:55:46.791Z,95282.55
2017-08-07T08:58:14.410Z,95280.70
2017-08-07T09:00:51.146Z,95277.84
2017-08-07T09:03:18.922Z,95280.64
2017-08-07T09:05:47.142Z,95275.80
2017-08-07T09:08:14.735Z,95270.36
2017-08-07T09:10:42.406Z,95275.10
2017-08-07T09:13:10.007Z,95274.85
2017-08-07T09:15:37.600Z,95282.07
2017-08-07T09:18:06.646Z,95282.91
2017-08-07T09:20:34.803Z,95276.53
2017-08-07T09:23:02.798Z,95274.63
2017-08-07T09:25:33.503Z,95270.79
2017-08-07T09:28:02.427Z,95271.34
2017-08-07T09:30:30.139Z,95274.40
2017-08-07T09:32:58.676Z,95282.94
2017-08-07T09:35:26.223Z,95270.54
2017-08-07T09:37:53.816Z,95271.11
2017-08-07T09:40:21.367Z,95268.02
2017-08-07T09:42:48.915Z,95269.43
2017-08-07T09:45:19.095Z,95272.11
2017-08-07T09:47:46.699Z,95267.63
2017-08-07T09:50:14.449Z,95254.81
2017-08-07T09:52:42.009Z,95258.52
2017-08-07T09:55:09.818Z,95253.66
2017-08-07T09:57:37.427Z,95257.41
2017-08-07T10:00:08.159Z,95247.00
2017-08-07T10:02:35.709Z,95253.51
2017-08-07T10:05:03.289Z,95243.41
2017-08-07T10:07:30.875Z,95237.10
2017-08-07T10:09:58.468Z,95246.88
2017-08-07T10:12:26.249Z,95241.94
2017-08-07T10:14:53.826Z,95239.33
2017-08-07T10:17:21.417Z,95231.94
2017-08-07T10:19:49.781Z,95237.02
2017-08-07T10:22:17.409Z,95227.36
2017-08-07T10:24:45.064Z,95224.08
2017-08-07T10:27:13.890Z,95225.17
2017-08-07T10:29:41.483Z,95230.77
2017-08-07T10:32:09.160Z,95220.42
2017-08-07T10:34:36.872Z,95214.13
2017-08-07T10:37:04.656Z,95219.63
2017-08-07T10:39:32.335Z,95214.58
2017-08-07T10:42:00.748Z,95207.28
2017-08-07T10:44:30.191Z,95209.80
2017-08-07T10:46:57.876Z,95206.43
2017-08-07T10:49:25.457Z,95194.84
2017-08-07T10:51:53.022Z,95196.41
2017-08-07T10:54:20.868Z,95194.66
2017-08-07T10:56:48.766Z,95190.75
2017-08-07T10:59:16.347Z,95186.10
2017-08-07T11:01:43.951Z,95190.53
2017-08-07T11:04:11.772Z,95198.94
2017-08-07T11:06:39.569Z,95193.81
2017-08-07T11:09:07.229Z,95185.94
2017-08-07T11:11:36.714Z,95182.42
2017-08-07T11:14:05.242Z,95182.13
2017-08-07T11:16:32.846Z,95179.58
2017-08-07T11:19:00.708Z,95180.45
2017-08-07T11:21:30.040Z,95174.88
2017-08-07T11:23:57.624Z,95172.83
2017-08-07T11:26:26.597Z,95173.43
2017-08-07T11:28:55.134Z,95174.31
2017-08-07T11:31:23.051Z,95172.67
2017-08-07T11:33:50.654Z,95180.25
2017-08-07T11:36:18.312Z,95165.42
2017-08-07T11:38:45.915Z,95158.69
2017-08-07T11:41:14.384Z,95159.91
2017-08-07T11:43:42.041Z,95151.73
2017-08-07T11:46:10.836Z,95153.73
2017-08-07T11:48:38.389Z,95143.15
2017-08-07T11:51:06.671Z,95148.57
2017-08-07T11:53:34.472Z,95142.55
2017-08-07T11:56:03.207Z,95130.50
2017-08-07T11:58:30.985Z,95136.14
2017-08-07T12:00:58.591Z,95136.11
2017-08-07T12:03:26.229Z,95134.78
2017-08-07T12:05:54.793Z,95130.92
2017-08-07T12:08:24.233Z,95133.65
2017-08-07T12:10:52.054Z,95130.13
2017-08-07T12:13:19.685Z,95131.66
2017-08-07T12:15:47.701Z,95132.98
2017-08-07T12:18:17.054Z,95131.14
2017-08-07T12:20:44.641Z,95133.38
2017-08-07T12:23:14.080Z,95133.90
2017-08-07T12:25:42.317Z,95137.29
2017-08-07T12:28:10.991Z,95126.33
2017-08-07T12:30:38.577Z,95130.16
2017-08-07T12:33:07.106Z,95142.83
2017-08-07T12:35:34.877Z,95134.68
2017-08-07T12:38:02.528Z,95147.55
2017-08-07T12:40:30.543Z,95143.70
2017-08-07T12:42:58.714Z,95145.19
2017-08-07T12:45:26.341Z,95137.91
2017-08-07T12:47:54.082Z,95144.20
2017-08-07T12:50:22.535Z,95134.02
2017-08-07T12:52:50.119Z,95133.30
2017-08-07T12:55:17.978Z,95116.19
2017-08-07T12:57:45.656Z,95107.59
2017-08-07T13:00:13.370Z,95114.42
2017-08-07T13:02:40.931Z,95127.80
2017-08-07T13:05:08.869Z,95144.34
2017-08-07T13:07:38.202Z,95152.16
2017-08-07T13:10:05.978Z,95146.83
2017-08-07T13:12:33.674Z,95150.73
2017-08-07T13:15:01.658Z,95160.05
2017-08-07T13:17:29.267Z,95161.75
2017-08-07T13:19:56.801Z,95159.58
2017-08-07T13:22:24.422Z,95171.45
2017-08-07T13:24:52.339Z,95184.30
2017-08-07T13:27:20.077Z,95216.70
2017-08-07T13:29:47.683Z,95269.53
2017-08-07T13:32:15.269Z,95313.62
2017-08-07T13:34:45.717Z,95329.98
2017-08-07T13:37:13.314Z,95332.83
2017-08-07T13:39:40.931Z,95346.30
2017-08-07T13:42:08.594Z,95352.80
2017-08-07T13:44:36.231Z,95360.36
2017-08-07T13:47:04.697Z,95355.25
2017-08-07T13:49:32.349Z,95373.36
2017-08-07T13:51:59.948Z,95376.14
2017-08-07T13:54:27.565Z,95379.50
2017-08-07T13:56:55.138Z,95396.69
2017-08-07T13:59:22.951Z,95381.06
2017-08-07T14:01:50.954Z,95367.28
2017-08-07T14:04:19.502Z,95368.88
2017-08-07T14:06:47.121Z,95367.22
2017-08-07T14:09:14.874Z,95366.36
2017-08-07T14:11:42.559Z,95362.84
2017-08-07T14:14:10.361Z,95356.47
2017-08-07T14:16:38.006Z,95357.30
2017-08-07T14:19:06.439Z,95357.23
2017-08-07T14:21:34.058Z,95362.61
2017-08-07T14:24:01.724Z,95354.91
2017-08-07T14:26:29.553Z,95357.62
2017-08-07T14:28:57.150Z,95360.63
2017-08-07T14:31:24.786Z,95351.48
2017-08-07T14:33:52.419Z,95357.14
2017-08-07T14:36:19.974Z,95363.03
2017-08-07T14:38:47.531Z,95358.84
2017-08-07T14:41:15.083Z,95354.91
2017-08-07T14:43:42.836Z,95364.44
2017-08-07T14:46:10.951Z,95371.00
2017-08-07T14:48:38.601Z,95375.73
2017-08-07T14:51:06.230Z,95391.62
2017-08-07T14:53:35.610Z,95390.92
2017-08-07T14:59:43.309Z,95416.30
2017-08-07T15:02:12.720Z,95429.40
2017-08-07T15:04:40.287Z,95426.40
2017-08-07T15:07:07.910Z,95440.24
2017-08-07T15:09:35.526Z,95451.95
2017-08-07T15:12:03.180Z,95454.39
2017-08-07T15:14:30.718Z,95459.83
2017-08-07T15:16:58.434Z,95466.33
2017-08-07T15:19:28.336Z,95466.06
2017-08-07T15:21:57.968Z,95454.69
2017-08-07T15:24:25.613Z,95448.97
2017-08-07T15:26:53.184Z,95459.25
2017-08-07T15:29:20.778Z,95479.84
2017-08-07T15:31:48.375Z,95465.30
2017-08-07T15:34:16.100Z,95462.29
2017-08-07T15:36:43.783Z,95468.77
2017-08-07T15:39:11.437Z,95454.40
2017-08-07T15:41:39.365Z,95449.42
2017-08-07T15:44:07.013Z,95443.87
2017-08-07T15:46:34.670Z,95441.05
2017-08-07T15:49:03.135Z,95433.80
2017-08-07T15:51:30.715Z,95439.16
2017-08-07T15:53:58.309Z,95438.33
2017-08-07T15:56:25.908Z,95430.92
2017-08-07T15:58:53.494Z,95432.09
2017-08-07T16:01:21.131Z,95443.84
2017-08-07T16:03:48.712Z,95435.81
2017-08-07T16:06:16.311Z,95438.88
2017-08-07T16:08:43.886Z,95452.70
2017-08-07T16:11:11.569Z,95447.87
2017-08-07T16:13:39.232Z,95442.69
2017-08-07T16:16:06.954Z,95442.77
2017-08-07T16:18:34.576Z,95443.05
2017-08-07T16:21:02.172Z,95444.05
2017-08-07T16:23:31.239Z,95450.46
2017-08-07T16:25:58.785Z,95458.50
2017-08-07T16:28:26.541Z,95458.91
2017-08-07T16:30:54.840Z,95467.63
2017-08-07T16:33:22.464Z,95467.61
2017-08-07T16:35:50.025Z,95472.11
2017-08-07T16:38:17.600Z,95466.09
2017-08-07T16:40:45.156Z,95461.92
2017-08-07T16:43:12.927Z,95466.31
2017-08-07T16:45:41.965Z,95463.38
2017-08-07T16:48:10.613Z,95460.80
2017-08-07T16:50:40.439Z,95460.80
2017-08-07T16:53:08.618Z,95457.72
2017-08-07T16:55:38.077Z,95455.28
2017-08-07T16:58:05.722Z,95448.02
2017-08-07T17:00:33.413Z,95456.78
2017-08-07T17:03:00.978Z,95450.12
2017-08-07T17:05:28.555Z,95442.93
2017-08-07T17:07:56.156Z,95443.22
2017-08-07T17:10:23.759Z,95440.78
2017-08-07T17:12:51.374Z,95443.16
2017-08-07T17:15:19.019Z,95447.53
2017-08-07T17:17:47.430Z,95448.34
2017-08-07T17:20:15.000Z,95443.87
2017-08-07T17:22:42.592Z,95444.66
2017-08-07T17:25:10.138Z,95445.44
2017-08-07T17:27:37.792Z,95455.61
2017-08-07T17:30:08.026Z,95450.59
2017-08-07T17:32:35.651Z,95461.54
2017-08-07T17:35:03.208Z,95457.36
2017-08-07T17:37:30.844Z,95459.37
2017-08-07T17:39:58.409Z,95462.98
2017-08-07T17:42:26.053Z,95469.36
2017-08-07T17:44:54.324Z,95475.19
2017-08-07T17:47:22.077Z,95473.78
2017-08-07T17:49:49.731Z,95480.70
2017-08-07T17:52:17.336Z,95481.64
2017-08-07T17:54:44.896Z,95482.72
2017-08-07T17:57:12.662Z,95492.47
2017-08-07T17:59:41.060Z,95490.30
2017-08-07T18:02:08.677Z,95488.14
2017-08-07T18:04:36.299Z,95493.68
2017-08-07T18:07:03.890Z,95496.72
2017-08-07T18:09:31.471Z,95498.92
2017-08-07T18:11:59.257Z,95497.03
2017-08-07T18:14:27.020Z,95499.42
2017-08-07T18:16:54.634Z,95500.14
2017-08-07T18:19:22.388Z,95496.33
2017-08-07T18:21:49.941Z,95502.47
2017-08-07T18:24:17.578Z,95502.59
2017-08-07T18:26:45.202Z,95506.48
2017-08-07T18:29:12.746Z,95504.92
2017-08-07T18:31:40.346Z,95510.23
2017-08-07T18:34:07.896Z,95507.31
2017-08-07T18:36:35.472Z,95502.84
2017-08-07T18:39:03.650Z,95515.25
2017-08-07T18:41:31.215Z,95529.38
2017-08-07T18:43:58.818Z,95530.30
2017-08-07T18:46:26.467Z,95530.95
2017-08-07T18:48:54.042Z,95539.59
2017-08-07T18:51:21.666Z,95532.03
2017-08-07T18:53:49.299Z,95533.22
2017-08-07T18:56:16.877Z,95546.98
2017-08-07T18:58:44.771Z,95546.59
2017-08-07T19:01:12.389Z,95551.71
2017-08-07T19:03:40.139Z,95546.20
2017-08-07T19:06:07.668Z,95549.64
2017-08-07T19:08:35.262Z,95544.72
2017-08-07T19:11:02.832Z,95546.53
2017-08-07T19:13:30.440Z,95553.58
2017-08-07T19:15:58.563Z,95556.44
2017-08-07T19:18:26.171Z,95561.54
2017-08-07T19:20:53.800Z,95555.45
2017-08-07T19:23:21.450Z,95554.05
2017-08-07T19:25:48.991Z,95553.37
2017-08-07T19:28:16.578Z,95555.28
2017-08-07T19:30:44.181Z,95561.90
2017-08-07T19:33:11.747Z,95558.89
2017-08-07T19:35:39.298Z,95564.92
2017-08-07T19:38:06.953Z,95568.47
2017-08-07T19:40:34.503Z,95579.02
2017-08-07T19:43:02.095Z,95584.61
2017-08-07T19:45:31.484Z,95583.09
2017-08-07T19:47:59.090Z,95577.91
2017-08-07T19:50:26.883Z,95574.02
2017-08-07T19:52:55.262Z,95571.80
2017-08-07T19:55:23.702Z,95571.95
2017-08-07T19:57:51.310Z,95572.28
2017-08-07T20:00:18.981Z,95577.93
2017-08-07T20:02:46.599Z,95578.50
2017-08-07T20:05:15.624Z,95573.47
2017-08-07T20:07:43.937Z,95580.81
2017-08-07T20:10:11.582Z,95582.64
2017-08-07T20:12:39.215Z,95586.14
2017-08-07T20:15:06.943Z,95591.50
2017-08-07T20:17:34.623Z,95588.54
2017-08-07T20:20:02.181Z,95591.80
2017-08-07T20:22:29.822Z,95593.41
2017-08-07T20:24:57.509Z,95596.89
2017-08-07T20:27:29.641Z,95596.84
2017-08-07T20:29:57.357Z,95598.44
2017-08-07T20:32:24.999Z,95603.45
2017-08-07T20:34:52.646Z,95617.56
2017-08-07T20:37:20.471Z,95613.39
2017-08-07T20:39:48.105Z,95620.14
2017-08-07T20:42:15.706Z,95615.58
2017-08-07T20:44:43.311Z,95615.17
2017-08-07T20:47:24.873Z,95622.00
2017-08-07T20:49:52.545Z,95616.80
2017-08-07T20:52:20.136Z,95620.47
2017-08-07T20:54:47.700Z,95630.59
2017-08-07T20:57:15.295Z,95632.52
2017-08-07T20:59:42.859Z,95633.12
2017-08-07T21:02:10.524Z,95631.94
2017-08-07T21:04:38.091Z,95633.47
2017-08-07T21:07:05.706Z,95632.67
2017-08-07T21:09:33.338Z,95632.42
2017-08-07T21:12:00.982Z,95632.63
2017-08-07T21:14:28.630Z,95634.45
2017-08-07T21:16:56.328Z,95644.53
2017-08-07T21:19:25.804Z,95644.23
2017-08-07T21:22:04.009Z,95648.16
2017-08-07T21:24:31.676Z,95647.79
2017-08-07T21:26:59.464Z,95646.36
2017-08-07T21:29:30.813Z,95651.21
2017-08-07T21:31:58.494Z,95655.85
2017-08-07T21:34:26.011Z,95652.09
2017-08-07T21:36:53.897Z,95644.88
2017-08-07T21:39:21.491Z,95639.78
2017-08-07T21:41:49.087Z,95645.27
2017-08-07T21:44:16.851Z,95641.91
2017-08-07T21:46:44.424Z,95639.54
2017-08-07T21:49:13.029Z,95645.37
2017-08-07T21:51:40.616Z,95645.77
2017-08-07T21:54:08.345Z,95647.06
2017-08-07T21:56:35.971Z,95650.22
2017-08-07T21:59:04.934Z,95644.82
2017-08-07T22:01:33.594Z,95643.51
2017-08-07T22:04:01.313Z,95647.09
2017-08-07T22:06:30.231Z,95652.28
2017-08-07T22:08:59.496Z,95658.85
2017-08-07T22:11:28.358Z,95650.55
2017-08-07T22:13:56.305Z,95639.59
2017-08-07T22:16:24.437Z,95653.38
2017-08-07T22:18:52.470Z,95645.27
2017-08-07T22:21:22.060Z,95648.04
2017-08-07T22:23:49.727Z,95647.91
2017-08-07T22:26:18.379Z,95643.26
2017-08-07T22:28:47.441Z,95654.01
2017-08-07T22:31:14.995Z,95647.41
2017-08-07T22:33:42.515Z,95648.03
2017-08-07T22:36:10.044Z,95644.09
2017-08-07T22:38:37.639Z,95640.30
2017-08-07T22:41:05.170Z,95642.27
2017-08-07T22:43:32.724Z,95641.20
2017-08-07T22:46:00.283Z,95631.06
2017-08-07T22:48:27.810Z,95632.84
2017-08-07T22:50:55.343Z,95629.17
2017-08-07T22:53:22.952Z,95627.91
2017-08-07T22:55:50.516Z,95633.44
2017-08-07T22:58:18.056Z,95619.06
2017-08-07T23:00:45.699Z,95617.95
2017-08-07T23:03:13.223Z,95610.23
2017-08-07T23:05:40.974Z,95614.77
2017-08-07T23:08:08.556Z,95604.19
2017-08-07T23:10:36.054Z,95604.47
2017-08-07T23:13:03.551Z,95603.52
2017-08-07T23:15:31.094Z,95599.66
2017-08-07T23:17:58.624Z,95600.23
2017-08-07T23:20:26.160Z,95607.04
2017-08-07T23:22:53.712Z,95602.17
2017-08-07T23:25:21.314Z,95596.97
2017-08-07T23:27:48.862Z,95592.35
2017-08-07T23:30:16.507Z,95591.80
2017-08-07T23:32:44.116Z,95600.72
2017-08-07T23:35:11.650Z,95602.33
2017-08-07T23:37:39.272Z,95597.67
2017-08-07T23:40:06.889Z,95602.06
2017-08-07T23:42:34.487Z,95601.08
2017-08-07T23:45:02.075Z,95600.98
2017-08-07T23:47:29.630Z,95618.09
2017-08-07T23:49:57.197Z,95604.89
2017-08-07T23:52:24.769Z,95603.50
2017-08-07T23:54:52.384Z,95595.18
2017-08-07T23:57:19.950Z,95610.70
2017-08-07T23:59:47.569Z,95614.92
